Time;durP1;ratioP1;P1;durP2;ratioP2;P2;SDS_P1;SDS_P2;PMS_P1;PMS_P2;Temp;Humidity;BMP_temperature;BMP_pressure;BME280_temperature;BME280_humidity;BME280_pressure;Samples;Min_cycle;Max_cycle;Signal;HPM_P1;HPM_P2
2022/08/21 00:01:49;;;;;;;9.73;3.50;;;17.70;99.60;;;;;;4973069;28;36418;-58
2022/08/21 00:04:17;;;;;;;10.98;3.83;;;17.70;99.70;;;;;;4972405;28;38149;-58
2022/08/21 00:06:45;;;;;;;11.82;4.10;;;17.60;99.70;;;;;;4971674;28;39055;-58
2022/08/21 00:09:12;;;;;;;8.40;3.72;;;17.60;99.80;;;;;;4971861;28;37849;-58
2022/08/21 00:11:40;;;;;;;10.25;3.75;;;17.60;99.90;;;;;;4972423;28;36046;-58
2022/08/21 00:14:09;;;;;;;10.75;4.32;;;17.60;99.90;;;;;;4972742;28;37465;-58
2022/08/21 00:16:38;;;;;;;9.63;3.28;;;17.50;99.90;;;;;;4972659;28;38936;-58
2022/08/21 00:19:06;;;;;;;8.63;3.22;;;17.50;99.90;;;;;;4972231;28;38591;-58
2022/08/21 00:21:35;;;;;;;10.93;2.72;;;17.50;99.90;;;;;;4972397;28;37482;-58
2022/08/21 00:24:03;;;;;;;8.05;2.78;;;17.50;99.90;;;;;;4973124;28;39097;-58
2022/08/21 00:26:30;;;;;;;8.88;2.33;;;17.40;99.90;;;;;;4972465;28;38071;-58
2022/08/21 00:28:57;;;;;;;6.07;2.58;;;17.50;99.90;;;;;;4973212;28;37632;-58
2022/08/21 00:31:25;;;;;;;11.13;4.28;;;17.40;99.90;;;;;;4972690;28;36397;-58
2022/08/21 00:33:52;;;;;;;11.57;4.10;;;17.40;99.90;;;;;;4972561;28;37423;-58
2022/08/21 00:36:19;;;;;;;10.25;4.00;;;17.40;99.90;;;;;;4970849;28;38840;-58
2022/08/21 00:38:48;;;;;;;9.38;3.78;;;17.40;99.90;;;;;;4972489;28;39168;-58
2022/08/21 00:41:15;;;;;;;10.77;4.15;;;17.30;99.90;;;;;;4971560;28;36727;-58
2022/08/21 00:43:43;;;;;;;11.23;3.50;;;17.30;99.90;;;;;;4971793;28;36257;-58
2022/08/21 00:46:10;;;;;;;10.65;4.82;;;17.30;99.90;;;;;;4972330;28;38174;-60
2022/08/21 00:48:37;;;;;;;16.58;8.00;;;17.30;99.90;;;;;;4971702;28;37736;-58
2022/08/21 00:51:09;;;;;;;21.85;11.63;;;17.30;99.90;;;;;;4971232;28;36505;-58
2022/08/21 00:53:40;;;;;;;20.92;9.15;;;17.30;99.90;;;;;;4972229;28;39039;-58
2022/08/21 00:56:11;;;;;;;11.07;5.10;;;17.20;99.90;;;;;;4972546;28;39148;-58
2022/08/21 00:58:39;;;;;;;11.68;4.57;;;17.20;99.90;;;;;;4972201;28;38508;-58
2022/08/21 01:01:08;;;;;;;8.52;3.92;;;17.20;99.90;;;;;;4972475;28;38022;-58
2022/08/21 01:03:36;;;;;;;7.38;3.03;;;17.20;99.90;;;;;;4971940;28;38712;-58
2022/08/21 01:06:05;;;;;;;6.05;2.53;;;17.20;99.90;;;;;;4971439;28;38214;-58
2022/08/21 01:08:33;;;;;;;8.75;2.60;;;17.20;99.90;;;;;;4970965;28;37733;-58
2022/08/21 01:11:02;;;;;;;8.90;3.15;;;17.20;99.90;;;;;;4971722;28;37041;-58
2022/08/21 01:13:33;;;;;;;7.25;2.35;;;17.20;99.90;;;;;;4971670;28;37741;-58
2022/08/21 01:16:03;;;;;;;8.05;2.83;;;17.20;99.90;;;;;;4971691;28;38054;-58
2022/08/21 01:18:31;;;;;;;6.53;2.60;;;17.10;99.90;;;;;;4972055;28;36341;-58
2022/08/21 01:21:08;;;;;;;5.90;2.42;;;17.10;99.90;;;;;;4971979;28;37183;-58
2022/08/21 01:23:36;;;;;;;5.68;2.42;;;17.10;99.90;;;;;;4971971;28;39490;-58
2022/08/21 01:26:04;;;;;;;7.78;2.80;;;17.00;99.90;;;;;;4971700;28;38675;-58
2022/08/21 01:28:36;;;;;;;7.93;3.00;;;17.00;99.90;;;;;;4971168;28;39899;-58
2022/08/21 01:31:05;;;;;;;9.30;2.75;;;16.90;99.90;;;;;;4971689;28;36761;-58
2022/08/21 01:33:33;;;;;;;8.20;2.83;;;16.90;99.90;;;;;;4970800;28;38564;-58
2022/08/21 01:36:00;;;;;;;5.45;2.83;;;16.90;99.90;;;;;;4971705;28;38121;-58
2022/08/21 01:38:29;;;;;;;8.15;2.80;;;16.90;99.90;;;;;;4971606;28;38154;-58
2022/08/21 01:40:56;;;;;;;7.43;2.97;;;16.90;99.90;;;;;;4971511;28;35275;-58
2022/08/21 01:43:23;;;;;;;8.68;2.80;;;16.90;99.90;;;;;;4971276;28;37622;-58
2022/08/21 01:45:51;;;;;;;5.70;2.80;;;16.80;99.90;;;;;;4970756;28;39180;-58
2022/08/21 01:48:18;;;;;;;9.55;3.15;;;16.80;99.90;;;;;;4970070;28;36659;-58
2022/08/21 01:50:46;;;;;;;7.35;2.83;;;16.80;99.90;;;;;;4970999;28;36832;-58
2022/08/21 01:53:15;;;;;;;8.38;3.22;;;16.90;99.90;;;;;;4970392;28;37629;-58
2022/08/21 01:55:43;;;;;;;8.60;2.72;;;16.90;99.90;;;;;;4971312;28;38170;-58
2022/08/21 01:58:11;;;;;;;8.77;3.53;;;16.90;99.90;;;;;;4970145;28;38476;-58
2022/08/21 02:00:38;;;;;;;6.78;2.75;;;16.90;99.90;;;;;;4971051;28;37257;-58
2022/08/21 02:03:06;;;;;;;12.27;3.63;;;16.90;99.90;;;;;;4971244;28;37610;-58
2022/08/21 02:05:33;;;;;;;12.95;3.30;;;17.00;99.90;;;;;;4974748;28;38255;-58
2022/08/21 02:08:01;;;;;;;9.88;3.63;;;17.00;99.90;;;;;;4974479;28;38565;-58
2022/08/21 02:10:32;;;;;;;8.57;3.20;;;17.00;99.90;;;;;;4974692;28;35298;-59
2022/08/21 02:13:01;;;;;;;8.02;3.15;;;17.00;99.90;;;;;;4974589;28;37667;-58
2022/08/21 02:15:30;;;;;;;8.07;3.72;;;17.00;99.90;;;;;;4974296;28;36872;-58
2022/08/21 02:17:59;;;;;;;8.30;4.03;;;17.00;99.90;;;;;;4973907;28;38154;-58
2022/08/21 02:20:29;;;;;;;9.23;3.33;;;17.00;99.90;;;;;;4973958;28;36939;-58
2022/08/21 02:22:57;;;;;;;10.15;3.90;;;17.00;99.90;;;;;;4974562;28;37462;-58
2022/08/21 02:25:26;;;;;;;8.05;3.92;;;17.00;99.90;;;;;;4974632;28;38041;-58
2022/08/21 02:27:54;;;;;;;10.55;3.45;;;17.00;99.90;;;;;;4974435;28;37782;-58
2022/08/21 02:30:25;;;;;;;11.60;3.92;;;17.10;99.90;;;;;;4974608;28;36416;-58
2022/08/21 02:32:53;;;;;;;6.85;3.50;;;17.10;99.90;;;;;;4973484;28;37781;-58
2022/08/21 02:35:21;;;;;;;9.32;4.13;;;17.00;99.90;;;;;;4973725;28;38270;-58
2022/08/21 02:37:51;;;;;;;13.00;4.57;;;17.00;99.90;;;;;;4974339;28;36506;-58
2022/08/21 02:40:20;;;;;;;9.05;3.85;;;17.00;99.90;;;;;;4974032;28;38376;-58
2022/08/21 02:42:48;;;;;;;10.50;3.97;;;17.00;99.90;;;;;;4973757;28;37929;-58
2022/08/21 02:45:17;;;;;;;7.07;3.35;;;17.00;99.90;;;;;;4973268;28;38103;-58
2022/08/21 02:47:50;;;;;;;6.88;3.50;;;17.00;99.90;;;;;;4973405;28;37734;-58
2022/08/21 02:50:20;;;;;;;8.38;3.40;;;17.00;99.90;;;;;;4973504;28;36533;-58
2022/08/21 02:52:48;;;;;;;11.05;4.00;;;17.00;99.90;;;;;;4974228;28;36261;-58
2022/08/21 02:55:16;;;;;;;8.57;4.05;;;17.00;99.90;;;;;;4973737;28;38138;-58
2022/08/21 02:57:43;;;;;;;7.75;3.63;;;17.00;99.90;;;;;;4973865;28;39450;-58
2022/08/21 03:00:13;;;;;;;9.77;3.42;;;17.00;99.90;;;;;;4972824;28;36454;-58
2022/08/21 03:02:40;;;;;;;7.47;3.35;;;17.00;99.90;;;;;;4973762;28;37345;-58
2022/08/21 03:05:11;;;;;;;10.15;4.53;;;17.00;99.90;;;;;;4973880;28;38161;-58
2022/08/21 03:07:38;;;;;;;7.45;3.80;;;17.00;99.90;;;;;;4973673;28;38853;-58
2022/08/21 03:10:07;;;;;;;8.95;4.32;;;16.90;99.90;;;;;;4973131;28;37166;-58
2022/08/21 03:12:35;;;;;;;9.23;4.07;;;16.90;99.90;;;;;;4973464;28;37535;-58
2022/08/21 03:15:04;;;;;;;7.13;3.63;;;16.90;99.90;;;;;;4971697;28;38122;-58
2022/08/21 03:17:31;;;;;;;8.93;4.32;;;17.00;99.90;;;;;;4972611;28;38510;-58
2022/08/21 03:19:58;;;;;;;9.10;4.22;;;16.90;99.90;;;;;;4974216;28;35424;-58
2022/08/21 03:22:27;;;;;;;9.15;3.80;;;16.90;99.90;;;;;;4973347;28;37712;-58
2022/08/21 03:24:55;;;;;;;9.38;4.40;;;16.90;99.90;;;;;;4973253;28;41476;-58
2022/08/21 03:27:22;;;;;;;10.10;4.00;;;16.90;99.90;;;;;;4972645;28;38832;-58
2022/08/21 03:29:49;;;;;;;13.52;4.20;;;16.90;99.90;;;;;;4973381;28;37160;-58
2022/08/21 03:32:17;;;;;;;9.25;4.53;;;16.90;99.90;;;;;;4973151;28;37702;-58
2022/08/21 03:34:44;;;;;;;12.50;4.50;;;16.90;99.90;;;;;;4972075;28;38252;-58
2022/08/21 03:37:12;;;;;;;8.90;4.43;;;16.90;99.90;;;;;;4973217;28;36406;-58
2022/08/21 03:39:42;;;;;;;9.60;3.72;;;16.90;99.90;;;;;;4972620;28;36666;-58
2022/08/21 03:42:09;;;;;;;10.48;4.78;;;16.80;99.90;;;;;;4972298;28;38432;-58
2022/08/21 03:44:37;;;;;;;8.70;4.05;;;16.80;99.90;;;;;;4971802;28;37853;-58
2022/08/21 03:47:05;;;;;;;8.35;3.95;;;16.80;99.90;;;;;;4972402;28;37626;-58
2022/08/21 03:49:33;;;;;;;9.60;4.35;;;16.80;99.90;;;;;;4973117;28;36416;-58
2022/08/21 03:52:00;;;;;;;7.60;4.32;;;16.80;99.90;;;;;;4972861;28;37456;-58
2022/08/21 03:54:28;;;;;;;9.30;4.15;;;16.70;99.90;;;;;;4973155;28;39908;-58
2022/08/21 03:56:57;;;;;;;10.35;4.22;;;16.70;99.90;;;;;;4972156;28;37729;-58
2022/08/21 03:59:24;;;;;;;7.78;4.55;;;16.70;99.90;;;;;;4972155;28;36488;-58
2022/08/21 04:01:53;;;;;;;9.00;4.20;;;16.70;99.90;;;;;;4972502;28;37429;-58
2022/08/21 04:04:21;;;;;;;7.82;4.35;;;16.70;99.90;;;;;;4973224;28;38796;-58
2022/08/21 04:06:49;;;;;;;10.20;3.92;;;16.70;99.90;;;;;;4973099;28;38258;-58
2022/08/21 04:09:17;;;;;;;7.03;3.72;;;16.70;99.90;;;;;;4972329;28;37140;-58
2022/08/21 04:11:45;;;;;;;8.00;4.32;;;16.70;99.90;;;;;;4970541;28;39309;-58
2022/08/21 04:14:13;;;;;;;9.40;4.20;;;16.70;99.90;;;;;;4972333;28;38300;-58
2022/08/21 04:16:41;;;;;;;11.98;4.13;;;16.70;99.90;;;;;;4971573;28;36708;-58
2022/08/21 04:19:09;;;;;;;7.43;3.90;;;16.70;99.90;;;;;;4972020;28;36507;-58
2022/08/21 04:21:37;;;;;;;10.65;4.40;;;16.70;99.90;;;;;;4973236;28;37528;-58
2022/08/21 04:24:05;;;;;;;8.85;4.03;;;16.70;99.90;;;;;;4972143;28;37727;-58
2022/08/21 04:26:34;;;;;;;9.57;4.60;;;16.70;99.90;;;;;;4972059;28;37578;-58
2022/08/21 04:29:01;;;;;;;8.77;3.75;;;16.70;99.90;;;;;;4970796;28;37466;-58
2022/08/21 04:31:30;;;;;;;8.80;4.40;;;16.70;99.90;;;;;;4973129;28;38295;-58
2022/08/21 04:33:57;;;;;;;8.35;3.75;;;16.60;99.90;;;;;;4972870;28;36885;-58
2022/08/21 04:36:24;;;;;;;9.55;3.72;;;16.70;99.90;;;;;;4972910;28;38116;-58
2022/08/21 04:38:52;;;;;;;8.07;4.03;;;16.70;99.90;;;;;;4972820;28;35390;-58
2022/08/21 04:41:19;;;;;;;10.38;4.45;;;16.70;99.90;;;;;;4971508;28;37738;-58
2022/08/21 04:43:46;;;;;;;10.27;4.05;;;16.70;99.90;;;;;;4971645;28;38005;-58
2022/08/21 04:46:15;;;;;;;8.63;4.10;;;16.70;99.90;;;;;;4973795;28;20142;-58
2022/08/21 04:48:43;;;;;;;10.43;4.63;;;16.70;99.90;;;;;;4972306;28;35147;-58
2022/08/21 04:51:14;;;;;;;8.80;4.18;;;16.70;99.90;;;;;;4971981;28;35720;-58
2022/08/21 04:53:46;;;;;;;9.52;3.97;;;16.80;99.90;;;;;;4972724;28;38073;-58
2022/08/21 04:56:19;;;;;;;10.50;4.03;;;16.80;99.90;;;;;;4972400;28;37780;-58
2022/08/21 04:58:48;;;;;;;;;;;16.80;99.90;;;;;;4971936;28;37328;-58
2022/08/21 05:01:20;;;;;;;8.57;3.78;;;16.80;99.90;;;;;;4971603;28;38013;-58
2022/08/21 05:03:52;;;;;;;8.75;4.18;;;16.90;99.90;;;;;;4972334;28;38261;-58
2022/08/21 05:06:19;;;;;;;7.20;3.28;;;16.80;99.90;;;;;;4971237;28;39014;-58
2022/08/21 05:08:49;;;;;;;8.38;3.60;;;16.90;99.90;;;;;;4972414;28;37197;-58
2022/08/21 05:11:16;;;;;;;9.55;4.20;;;17.00;99.90;;;;;;4971764;28;37445;-58
2022/08/21 05:13:43;;;;;;;13.27;4.82;;;16.90;99.90;;;;;;4970340;28;38141;-58
2022/08/21 05:16:11;;;;;;;9.30;3.75;;;17.00;99.90;;;;;;4971071;28;38361;-58
2022/08/21 05:18:38;;;;;;;9.85;4.10;;;17.00;99.90;;;;;;4971735;28;38539;-58
2022/08/21 05:21:07;;;;;;;8.65;3.35;;;17.10;99.90;;;;;;4971445;28;38970;-58
2022/08/21 05:23:34;;;;;;;9.10;3.63;;;17.20;99.90;;;;;;4971690;28;38103;-58
2022/08/21 05:26:01;;;;;;;9.82;4.28;;;17.30;99.90;;;;;;4971047;28;38497;-58
2022/08/21 05:28:29;;;;;;;9.70;4.57;;;17.40;99.90;;;;;;4971546;28;37562;-58
2022/08/21 05:30:56;;;;;;;7.43;3.45;;;17.50;99.90;;;;;;4971188;28;38673;-58
2022/08/21 05:33:23;;;;;;;10.57;4.25;;;17.70;99.90;;;;;;4971530;28;40683;-58
2022/08/21 05:35:52;;;;;;;10.35;3.85;;;17.90;99.90;;;;;;4971351;28;37895;-58
2022/08/21 05:38:20;;;;;;;8.27;3.88;;;18.00;99.90;;;;;;4973091;28;36641;-58
2022/08/21 05:40:48;;;;;;;8.48;3.92;;;18.20;99.90;;;;;;4973737;28;37536;-58
2022/08/21 05:43:15;;;;;;;9.65;4.22;;;18.30;99.90;;;;;;4973016;28;36962;-58
2022/08/21 05:45:43;;;;;;;9.00;3.85;;;18.30;99.90;;;;;;4974376;28;40373;-58
2022/08/21 05:48:13;;;;;;;10.02;3.60;;;18.40;99.90;;;;;;4973420;28;36542;-58
2022/08/21 05:50:40;;;;;;;9.80;4.00;;;18.50;99.90;;;;;;4974458;28;39030;-58
2022/08/21 05:53:07;;;;;;;11.23;4.78;;;18.60;99.90;;;;;;4973713;28;38716;-58
2022/08/21 05:55:37;;;;;;;6.88;2.95;;;18.70;99.90;;;;;;4974802;28;37823;-58
2022/08/21 05:58:04;;;;;;;8.18;3.55;;;18.80;99.90;;;;;;4973211;28;35833;-58
2022/08/21 06:00:33;;;;;;;11.10;3.70;;;18.90;99.90;;;;;;4973198;28;38945;-58
2022/08/21 06:03:00;;;;;;;10.65;3.78;;;19.00;99.90;;;;;;4974483;28;39295;-58
2022/08/21 06:05:28;;;;;;;9.98;4.05;;;19.00;99.90;;;;;;4974643;28;39336;-58
2022/08/21 06:07:55;;;;;;;7.63;3.03;;;19.10;99.90;;;;;;4974746;28;36431;-58
2022/08/21 06:10:22;;;;;;;12.07;3.90;;;19.10;99.90;;;;;;4973708;28;36196;-58
2022/08/21 06:12:55;;;;;;;10.52;3.28;;;19.20;99.90;;;;;;4974355;28;38250;-58
2022/08/21 06:15:23;;;;;;;9.27;3.45;;;19.20;99.90;;;;;;4973653;28;37734;-58
2022/08/21 06:17:50;;;;;;;7.43;3.20;;;19.20;99.90;;;;;;4973930;28;36589;-58
2022/08/21 06:20:17;;;;;;;10.38;3.72;;;19.30;99.90;;;;;;4974468;28;39252;-58
2022/08/21 06:22:45;;;;;;;8.30;3.55;;;19.30;99.90;;;;;;4973991;28;36926;-58
2022/08/21 06:25:12;;;;;;;11.25;3.33;;;19.40;99.90;;;;;;4974163;28;38232;-58
2022/08/21 06:27:39;;;;;;;10.38;3.75;;;19.40;99.90;;;;;;4973382;28;37620;-58
2022/08/21 06:30:09;;;;;;;11.98;3.85;;;19.40;99.90;;;;;;4974184;28;37381;-58
2022/08/21 06:32:36;;;;;;;11.38;3.67;;;19.40;99.90;;;;;;4973134;28;38349;-58
2022/08/21 06:35:04;;;;;;;13.57;3.97;;;19.50;99.90;;;;;;4973330;28;37900;-58
2022/08/21 06:37:32;;;;;;;7.93;3.60;;;19.40;99.90;;;;;;4973244;28;39341;-58
2022/08/21 06:39:59;;;;;;;8.18;3.42;;;19.50;99.90;;;;;;4974017;28;38817;-58
2022/08/21 06:42:27;;;;;;;9.18;3.78;;;19.50;99.90;;;;;;4973497;28;37032;-58
2022/08/21 06:44:55;;;;;;;9.93;3.53;;;19.50;99.90;;;;;;4974295;28;36750;-58
2022/08/21 06:47:24;;;;;;;10.18;3.33;;;19.50;99.90;;;;;;4974050;28;36530;-58
2022/08/21 06:49:51;;;;;;;9.80;4.10;;;19.50;99.90;;;;;;4972531;28;37911;-58
2022/08/21 06:52:18;;;;;;;10.90;3.97;;;19.50;99.90;;;;;;4974375;28;38571;-58
2022/08/21 06:54:46;;;;;;;12.70;3.80;;;19.50;99.90;;;;;;4973170;28;37525;-58
2022/08/21 06:57:13;;;;;;;10.77;4.20;;;19.60;99.90;;;;;;4973635;28;38408;-58
2022/08/21 06:59:40;;;;;;;11.75;3.60;;;19.60;99.90;;;;;;4974051;28;37318;-58
2022/08/21 07:02:08;;;;;;;11.05;3.05;;;19.60;99.90;;;;;;4972808;28;38315;-58
2022/08/21 07:04:37;;;;;;;8.32;3.22;;;19.60;99.90;;;;;;4973975;28;38186;-58
2022/08/21 07:07:04;;;;;;;13.27;3.85;;;19.70;99.90;;;;;;4974194;28;37786;-58
2022/08/21 07:09:32;;;;;;;12.10;3.30;;;19.70;99.90;;;;;;4973508;28;38952;-58
2022/08/21 07:12:00;;;;;;;13.30;3.15;;;19.70;99.90;;;;;;4971600;28;37003;-58
2022/08/21 07:14:27;;;;;;;9.10;3.13;;;19.70;99.90;;;;;;4974050;28;38630;-58
2022/08/21 07:16:54;;;;;;;9.48;2.88;;;19.80;99.90;;;;;;4972762;28;35952;-58
2022/08/21 07:19:22;;;;;;;10.30;3.15;;;19.80;99.90;;;;;;4973174;28;36144;-58
2022/08/21 07:21:50;;;;;;;8.95;2.72;;;19.90;99.90;;;;;;4973747;28;38746;-58
2022/08/21 07:24:18;;;;;;;7.40;2.63;;;19.90;99.90;;;;;;4973782;28;37998;-58
2022/08/21 07:26:45;;;;;;;12.15;3.13;;;20.00;99.90;;;;;;4973336;28;36486;-58
2022/08/21 07:29:12;;;;;;;7.88;3.20;;;20.00;99.90;;;;;;4973529;28;36196;-58
2022/08/21 07:31:40;;;;;;;8.82;2.65;;;20.10;99.90;;;;;;4973673;28;39318;-58
2022/08/21 07:34:08;;;;;;;6.15;2.08;;;20.10;99.90;;;;;;4973726;28;37631;-58
2022/08/21 07:36:35;;;;;;;9.48;2.67;;;20.20;99.90;;;;;;4972544;28;35403;-58
2022/08/21 07:39:04;;;;;;;6.55;2.00;;;20.20;99.80;;;;;;4972810;28;38460;-58
2022/08/21 07:41:31;;;;;;;10.98;2.80;;;20.20;99.60;;;;;;4971812;28;38537;-58
2022/08/21 07:44:00;;;;;;;9.07;2.45;;;20.30;99.40;;;;;;4972565;28;37761;-58
2022/08/21 07:46:27;;;;;;;12.82;2.42;;;20.30;99.50;;;;;;4973191;28;38002;-58
2022/08/21 07:48:55;;;;;;;11.65;2.45;;;20.30;99.50;;;;;;4973533;28;36563;-58
2022/08/21 07:51:26;;;;;;;10.95;2.95;;;20.30;99.60;;;;;;4973059;28;37954;-58
2022/08/21 07:53:56;;;;;;;7.63;2.15;;;20.40;99.40;;;;;;4973196;28;37810;-58
2022/08/21 07:56:25;;;;;;;7.95;2.17;;;20.40;99.40;;;;;;4973078;28;35335;-58
2022/08/21 07:58:52;;;;;;;9.90;2.33;;;20.50;99.30;;;;;;4971953;28;38071;-59
2022/08/21 08:01:20;;;;;;;7.65;2.60;;;20.50;99.30;;;;;;4973147;28;37847;-58
2022/08/21 08:03:48;;;;;;;13.30;2.50;;;20.60;99.00;;;;;;4973522;28;37195;-58
2022/08/21 08:06:18;;;;;;;7.68;2.42;;;20.60;99.10;;;;;;4973121;28;38197;-58
2022/08/21 08:08:45;;;;;;;13.70;3.33;;;20.60;99.30;;;;;;4973899;28;36397;-58
2022/08/21 08:11:15;;;;;;;9.68;2.10;;;20.70;99.30;;;;;;4972687;28;39792;-58
2022/08/21 08:13:45;;;;;;;12.30;2.63;;;20.80;99.20;;;;;;4972157;28;39128;-59
2022/08/21 08:16:13;;;;;;;12.95;2.90;;;20.80;99.10;;;;;;4972601;28;36346;-58
2022/08/21 08:18:41;;;;;;;9.35;2.53;;;20.90;99.00;;;;;;4972118;28;37680;-58
2022/08/21 08:21:10;;;;;;;8.90;2.78;;;20.90;98.90;;;;;;4972954;28;38243;-58
2022/08/21 08:23:38;;;;;;;14.90;3.28;;;20.90;98.90;;;;;;4972083;28;37863;-58
2022/08/21 08:26:06;;;;;;;10.65;2.22;;;21.00;99.00;;;;;;4971757;28;36349;-58
2022/08/21 08:28:34;;;;;;;9.55;2.60;;;21.00;99.00;;;;;;4973147;28;37407;-58
2022/08/21 08:31:03;;;;;;;8.15;2.10;;;21.10;99.00;;;;;;4971880;28;37959;-58
2022/08/21 08:33:30;;;;;;;10.40;2.47;;;21.20;99.00;;;;;;4972286;28;38256;-58
2022/08/21 08:35:58;;;;;;;8.80;2.25;;;21.20;99.10;;;;;;4970326;28;36756;-58
2022/08/21 08:38:27;;;;;;;11.70;2.85;;;21.30;98.90;;;;;;4970520;28;37586;-58
2022/08/21 08:41:01;;;;;;;9.82;2.53;;;21.40;98.80;;;;;;4970766;28;38689;-58
2022/08/21 08:43:30;;;;;;;10.02;2.70;;;21.50;98.90;;;;;;4971136;28;37706;-58
2022/08/21 08:46:01;;;;;;;10.55;2.80;;;21.50;98.80;;;;;;4971517;28;36723;-58
2022/08/21 08:48:45;;;;;;;11.70;2.97;;;21.60;98.50;;;;;;4971907;28;38112;-58
2022/08/21 08:51:19;;;;;;;8.65;2.10;;;21.60;98.50;;;;;;4971552;28;38388;-58
2022/08/21 08:53:52;;;;;;;8.88;2.30;;;21.60;98.70;;;;;;4971747;28;37748;-58
2022/08/21 08:56:27;;;;;;;10.70;2.58;;;21.70;98.80;;;;;;4972511;28;36577;-58
2022/08/21 08:58:58;;;;;;;12.43;2.70;;;21.70;98.70;;;;;;4971137;28;37529;-59
2022/08/21 09:01:25;;;;;;;10.52;3.05;;;21.80;98.70;;;;;;4972317;28;39386;-58
2022/08/21 09:03:54;;;;;;;9.32;2.55;;;21.90;98.50;;;;;;4971938;28;37725;-58
2022/08/21 09:06:54;;;;;;;9.75;2.40;;;22.00;98.20;;;;;;4970833;28;37051;-58
2022/08/21 09:09:34;;;;;;;10.43;2.47;;;22.20;98.50;;;;;;4971368;28;39068;-59
2022/08/21 09:12:09;;;;;;;9.63;2.40;;;22.30;98.30;;;;;;4970300;28;38583;-58
2022/08/21 09:15:02;;;;;;;13.63;2.67;;;22.40;98.10;;;;;;4972041;28;40894;-58
2022/08/21 09:17:41;;;;;;;9.10;2.27;;;22.40;98.00;;;;;;4972060;28;35309;-58
2022/08/21 09:20:24;;;;;;;9.13;2.67;;;22.50;97.80;;;;;;4970916;28;37937;-58
2022/08/21 09:23:01;;;;;;;12.48;2.60;;;22.60;97.70;;;;;;4971338;28;38585;-58
2022/08/21 09:25:34;;;;;;;11.35;3.47;;;22.70;97.60;;;;;;4971485;28;36422;-59
2022/08/21 09:28:01;;;;;;;9.23;2.20;;;22.80;97.30;;;;;;4972144;28;37057;-58
2022/08/21 09:30:32;;;;;;;9.75;2.42;;;22.90;97.10;;;;;;4971810;28;36194;-59
2022/08/21 09:33:00;;;;;;;9.35;2.33;;;23.00;96.90;;;;;;4971633;28;38992;-58
2022/08/21 09:35:28;;;;;;;5.55;2.13;;;23.00;96.80;;;;;;4970892;28;37764;-58
2022/08/21 09:38:00;;;;;;;8.85;2.63;;;23.20;96.80;;;;;;4970665;28;37371;-58
2022/08/21 09:40:34;;;;;;;8.15;2.25;;;23.30;96.40;;;;;;4970530;28;37863;-58
2022/08/21 09:43:06;;;;;;;11.70;2.45;;;23.30;96.00;;;;;;4970876;28;39462;-59
2022/08/21 09:45:35;;;;;;;11.60;2.75;;;23.20;95.70;;;;;;4971504;28;38534;-56
2022/08/21 09:48:14;;;;;;;12.30;2.80;;;23.30;95.60;;;;;;4971517;28;37387;-56
2022/08/21 09:50:44;;;;;;;12.38;2.47;;;23.40;95.60;;;;;;4970269;28;37450;-56
2022/08/21 09:53:19;;;;;;;7.05;1.80;;;23.50;95.70;;;;;;4970766;28;38335;-56
2022/08/21 09:58:42;;;;;;;8.57;2.10;;;23.70;94.70;;;;;;4971708;28;37846;-56
2022/08/21 10:01:14;;;;;;;11.23;2.67;;;23.80;94.30;;;;;;4971316;28;38547;-57
2022/08/21 10:03:42;;;;;;;8.00;2.70;;;24.00;94.30;;;;;;4971320;28;38414;-56
2022/08/21 10:06:21;;;;;;;9.43;2.35;;;24.10;94.00;;;;;;4970307;28;38533;-57
2022/08/21 10:08:48;;;;;;;12.52;3.10;;;24.20;93.30;;;;;;4971266;28;36398;-57
2022/08/21 10:11:17;;;;;;;6.45;1.83;;;24.30;92.70;;;;;;4970011;28;37302;-56
2022/08/21 10:13:55;;;;;;;7.65;1.80;;;24.40;92.50;;;;;;4970567;28;38183;-56
2022/08/21 10:16:33;;;;;;;8.95;2.15;;;24.50;92.20;;;;;;4970189;28;37993;-57
2022/08/21 10:19:13;;;;;;;9.10;2.47;;;24.60;92.40;;;;;;4970797;28;35224;-57
2022/08/21 10:21:51;;;;;;;10.18;2.40;;;24.70;92.00;;;;;;4971132;28;38230;-57
2022/08/21 10:24:25;;;;;;;11.00;2.75;;;24.80;91.30;;;;;;4972856;28;38453;-57
2022/08/21 10:27:03;;;;;;;7.32;2.13;;;24.60;90.50;;;;;;4974252;28;37717;-57
2022/08/21 10:29:44;;;;;;;8.57;2.00;;;24.40;90.40;;;;;;4974631;28;37993;-57
2022/08/21 10:32:24;;;;;;;8.63;2.35;;;24.10;91.40;;;;;;4973786;28;35483;-56
2022/08/21 10:35:00;;;;;;;9.13;2.20;;;23.90;91.80;;;;;;4973486;28;38255;-57
2022/08/21 10:37:39;;;;;;;8.85;1.80;;;23.70;92.40;;;;;;4973964;28;37706;-57
2022/08/21 10:40:17;;;;;;;10.25;1.75;;;23.50;92.70;;;;;;4974158;28;37530;-57
2022/08/21 10:42:57;;;;;;;11.27;1.70;;;23.30;93.10;;;;;;4973976;28;37903;-56
2022/08/21 10:45:39;;;;;;;10.75;2.53;;;23.10;94.10;;;;;;4974436;28;38164;-56
2022/08/21 10:48:08;;;;;;;15.73;3.75;;;23.00;95.50;;;;;;4974565;28;37536;-57
2022/08/21 10:50:42;;;;;;;9.48;2.40;;;22.80;96.40;;;;;;4974351;28;37062;-56
2022/08/21 10:53:47;;;;;;;10.88;2.58;;;22.70;97.00;;;;;;4974053;28;36342;-57
2022/08/21 10:56:20;;;;;;;9.77;3.00;;;22.70;98.20;;;;;;4969401;28;39512;-56
2022/08/21 10:58:59;;;;;;;12.97;3.23;;;22.70;98.50;;;;;;4973277;28;37702;-56
2022/08/21 11:01:33;;;;;;;10.27;2.60;;;22.70;98.60;;;;;;4971609;28;35314;-56
2022/08/21 11:04:12;;;;;;;13.35;3.45;;;22.80;98.50;;;;;;4970995;28;38311;-56
2022/08/21 11:06:46;;;;;;;8.07;2.13;;;22.90;98.20;;;;;;4972313;28;39005;-57
2022/08/21 11:09:18;;;;;;;11.93;3.20;;;23.10;97.90;;;;;;4973840;28;37545;-57
2022/08/21 11:11:51;;;;;;;8.88;2.40;;;23.40;97.20;;;;;;4972869;28;37262;-57
2022/08/21 11:14:37;;;;;;;10.55;2.45;;;23.60;97.10;;;;;;4973547;28;38159;-57
2022/08/21 11:17:09;;;;;;;9.45;2.17;;;23.90;96.60;;;;;;4972264;28;37912;-57
2022/08/21 11:19:48;;;;;;;8.40;2.00;;;24.10;96.20;;;;;;4973422;28;39620;-57
2022/08/21 11:22:19;;;;;;;8.93;2.38;;;24.20;95.40;;;;;;4973200;28;36920;-56
2022/08/21 11:24:55;;;;;;;6.50;1.95;;;24.40;94.60;;;;;;4973393;28;36339;-57
2022/08/21 11:27:29;;;;;;;8.40;2.65;;;24.60;94.50;;;;;;4973278;28;38338;-56
2022/08/21 11:29:59;;;;;;;6.25;2.28;;;24.70;93.90;;;;;;4973247;28;38268;-57
2022/08/21 11:32:45;;;;;;;7.20;1.98;;;24.90;93.90;;;;;;4971696;28;36633;-57
2022/08/21 11:35:27;;;;;;;10.20;2.50;;;25.00;92.90;;;;;;4972989;28;37574;-57
2022/08/21 11:38:04;;;;;;;9.27;2.20;;;25.20;93.00;;;;;;4971943;28;38149;-56
2022/08/21 11:40:50;;;;;;;10.45;2.60;;;25.10;92.20;;;;;;4973071;28;38189;-57
2022/08/21 11:43:26;;;;;;;11.73;1.85;;;24.90;92.00;;;;;;4971865;28;36321;-57
2022/08/21 11:45:56;;;;;;;9.23;2.42;;;24.70;92.00;;;;;;4972861;28;37529;-57
2022/08/21 11:48:37;;;;;;;10.93;2.42;;;24.50;91.90;;;;;;4971903;28;39024;-57
2022/08/21 11:51:11;;;;;;;8.70;2.25;;;24.20;91.80;;;;;;4972719;28;38196;-57
2022/08/21 11:53:44;;;;;;;9.95;2.30;;;24.10;92.20;;;;;;4972496;28;37588;-57
2022/08/21 11:56:20;;;;;;;8.05;2.60;;;24.00;92.60;;;;;;4972225;28;38247;-57
2022/08/21 11:58:51;;;;;;;8.75;1.92;;;23.90;93.00;;;;;;4971767;28;38838;-57
2022/08/21 12:01:23;;;;;;;11.15;2.25;;;24.10;93.30;;;;;;4972564;28;38857;-56
2022/08/21 12:03:56;;;;;;;10.05;2.28;;;24.20;93.10;;;;;;4972382;28;38603;-57
2022/08/21 12:06:33;;;;;;;8.32;2.13;;;24.30;92.30;;;;;;4972860;28;37496;-57
2022/08/21 12:09:05;;;;;;;9.57;1.80;;;24.50;91.80;;;;;;4972031;28;38039;-57
2022/08/21 12:11:47;;;;;;;7.55;1.92;;;24.60;91.30;;;;;;4972317;28;36476;-57
2022/08/21 12:14:17;;;;;;;8.27;2.10;;;24.70;90.90;;;;;;4972684;28;36704;-57
2022/08/21 12:16:46;;;;;;;8.20;1.77;;;24.70;90.20;;;;;;4969706;28;37990;-57
2022/08/21 12:19:28;;;;;;;7.47;1.70;;;24.70;89.60;;;;;;4969182;28;39128;-57
2022/08/21 12:22:00;;;;;;;5.00;1.42;;;24.70;89.10;;;;;;4970626;28;37580;-57
2022/08/21 12:24:37;;;;;;;6.57;1.48;;;24.70;90.10;;;;;;4971500;28;36789;-56
2022/08/21 12:27:25;;;;;;;7.85;1.90;;;24.70;90.00;;;;;;4971973;28;37484;-57
2022/08/21 12:29:55;;;;;;;9.13;2.13;;;24.80;90.10;;;;;;4968458;28;36917;-57
2022/08/21 12:32:29;;;;;;;8.75;1.85;;;24.80;90.40;;;;;;4969965;28;37740;-57
2022/08/21 12:35:02;;;;;;;6.40;1.63;;;24.80;88.40;;;;;;4972244;28;36659;-57
2022/08/21 12:37:39;;;;;;;8.38;2.17;;;24.70;87.50;;;;;;4971817;28;36352;-57
2022/08/21 12:40:14;;;;;;;10.30;2.35;;;24.60;86.90;;;;;;4971390;28;38948;-57
2022/08/21 12:42:49;;;;;;;7.82;1.67;;;24.50;86.90;;;;;;4970691;28;38344;-56
2022/08/21 12:45:22;;;;;;;6.22;1.77;;;24.40;87.40;;;;;;4968782;28;35382;-56
2022/08/21 12:47:57;;;;;;;4.88;1.30;;;24.20;86.50;;;;;;4970540;28;38955;-56
2022/08/21 12:50:30;;;;;;;8.52;1.73;;;24.10;86.00;;;;;;4971438;28;40025;-56
2022/08/21 12:53:03;;;;;;;7.18;1.70;;;23.90;85.10;;;;;;4971512;28;39235;-56
2022/08/21 12:55:33;;;;;;;6.32;1.42;;;23.80;85.70;;;;;;4972075;28;37356;-57
2022/08/21 12:58:02;;;;;;;4.30;1.30;;;23.70;86.00;;;;;;4969712;28;36270;-56
2022/08/21 13:00:31;;;;;;;6.10;1.60;;;23.60;85.90;;;;;;4971391;28;37832;-56
2022/08/21 13:02:59;;;;;;;5.47;1.60;;;23.50;86.30;;;;;;4971279;28;38323;-57